sensor_id;sensor_type;location;lat;lon;timestamp;temperature;humidity
57664;DHT22;43493;53.098;6.064;2023-02-15T00:00:22;3.20;99.90
57664;DHT22;43493;53.098;6.064;2023-02-15T00:02:47;3.20;99.90
57664;DHT22;43493;53.098;6.064;2023-02-15T00:05:13;3.10;99.90
57664;DHT22;43493;53.098;6.064;2023-02-15T00:07:39;3.10;99.90
57664;DHT22;43493;53.098;6.064;2023-02-15T00:10:05;3.10;99.90
57664;DHT22;43493;53.098;6.064;2023-02-15T00:12:31;3.10;99.90
57664;DHT22;43493;53.098;6.064;2023-02-15T00:14:57;3.10;99.90
57664;DHT22;43493;53.098;6.064;2023-02-15T00:17:23;3.10;99.90
57664;DHT22;43493;53.098;6.064;2023-02-15T00:19:49;3.00;99.90
57664;DHT22;43493;53.098;6.064;2023-02-15T00:22:15;3.00;99.90
57664;DHT22;43493;53.098;6.064;2023-02-15T00:24:40;3.10;99.90
57664;DHT22;43493;53.098;6.064;2023-02-15T00:27:06;3.10;99.90
57664;DHT22;43493;53.098;6.064;2023-02-15T00:29:32;3.10;99.90
57664;DHT22;43493;53.098;6.064;2023-02-15T00:31:57;3.10;99.90
57664;DHT22;43493;53.098;6.064;2023-02-15T00:34:25;3.00;99.90
57664;DHT22;43493;53.098;6.064;2023-02-15T00:36:52;3.00;99.90
57664;DHT22;43493;53.098;6.064;2023-02-15T00:39:18;3.00;99.90
57664;DHT22;43493;53.098;6.064;2023-02-15T00:41:45;3.00;99.90
57664;DHT22;43493;53.098;6.064;2023-02-15T00:44:12;3.00;99.90
57664;DHT22;43493;53.098;6.064;2023-02-15T00:46:38;3.00;99.90
57664;DHT22;43493;53.098;6.064;2023-02-15T00:49:04;3.00;99.90
57664;DHT22;43493;53.098;6.064;2023-02-15T00:51:31;2.90;99.90
57664;DHT22;43493;53.098;6.064;2023-02-15T00:53:57;3.00;99.90
57664;DHT22;43493;53.098;6.064;2023-02-15T00:56:23;2.90;99.90
57664;DHT22;43493;53.098;6.064;2023-02-15T00:58:48;2.90;99.90
57664;DHT22;43493;53.098;6.064;2023-02-15T01:01:18;2.90;99.90
57664;DHT22;43493;53.098;6.064;2023-02-15T01:03:44;2.90;99.90
57664;DHT22;43493;53.098;6.064;2023-02-15T01:06:12;2.80;99.90
57664;DHT22;43493;53.098;6.064;2023-02-15T01:08:38;2.80;99.90
57664;DHT22;43493;53.098;6.064;2023-02-15T01:11:06;2.90;99.90
57664;DHT22;43493;53.098;6.064;2023-02-15T01:13:32;2.90;99.90
57664;DHT22;43493;53.098;6.064;2023-02-15T01:15:58;2.80;99.90
57664;DHT22;43493;53.098;6.064;2023-02-15T01:18:24;2.90;99.90
57664;DHT22;43493;53.098;6.064;2023-02-15T01:20:49;2.80;99.90
57664;DHT22;43493;53.098;6.064;2023-02-15T01:23:15;2.80;99.90
57664;DHT22;43493;53.098;6.064;2023-02-15T01:25:41;2.80;99.90
57664;DHT22;43493;53.098;6.064;2023-02-15T01:28:07;2.90;99.90
57664;DHT22;43493;53.098;6.064;2023-02-15T01:30:33;2.80;99.90
57664;DHT22;43493;53.098;6.064;2023-02-15T01:32:59;2.80;99.90
57664;DHT22;43493;53.098;6.064;2023-02-15T01:35:27;2.80;99.90
57664;DHT22;43493;53.098;6.064;2023-02-15T01:37:53;2.70;99.90
57664;DHT22;43493;53.098;6.064;2023-02-15T01:40:19;2.70;99.90
57664;DHT22;43493;53.098;6.064;2023-02-15T01:42:45;2.70;99.90
57664;DHT22;43493;53.098;6.064;2023-02-15T01:45:31;2.70;99.90
57664;DHT22;43493;53.098;6.064;2023-02-15T01:50:37;2.60;99.90
57664;DHT22;43493;53.098;6.064;2023-02-15T01:53:21;2.60;99.90
57664;DHT22;43493;53.098;6.064;2023-02-15T01:55:57;2.60;99.90
57664;DHT22;43493;53.098;6.064;2023-02-15T01:58:25;2.60;99.90
57664;DHT22;43493;53.098;6.064;2023-02-15T02:00:52;2.60;99.90
57664;DHT22;43493;53.098;6.064;2023-02-15T02:03:29;2.60;99.90
57664;DHT22;43493;53.098;6.064;2023-02-15T02:05:56;2.60;99.90
57664;DHT22;43493;53.098;6.064;2023-02-15T02:08:22;2.60;99.90
57664;DHT22;43493;53.098;6.064;2023-02-15T02:10:47;2.60;99.90
57664;DHT22;43493;53.098;6.064;2023-02-15T02:13:13;2.60;99.90
57664;DHT22;43493;53.098;6.064;2023-02-15T02:15:47;2.50;99.90
57664;DHT22;43493;53.098;6.064;2023-02-15T02:18:39;2.50;99.90
57664;DHT22;43493;53.098;6.064;2023-02-15T02:29:30;2.30;99.90
57664;DHT22;43493;53.098;6.064;2023-02-15T02:32:06;2.40;99.90
57664;DHT22;43493;53.098;6.064;2023-02-15T02:37:30;2.30;99.90
57664;DHT22;43493;53.098;6.064;2023-02-15T02:40:15;2.20;99.90
57664;DHT22;43493;53.098;6.064;2023-02-15T02:42:44;2.10;99.90
57664;DHT22;43493;53.098;6.064;2023-02-15T02:45:24;2.20;99.90
57664;DHT22;43493;53.098;6.064;2023-02-15T02:47:56;2.20;99.90
57664;DHT22;43493;53.098;6.064;2023-02-15T02:50:27;2.20;99.90
57664;DHT22;43493;53.098;6.064;2023-02-15T02:52:55;2.20;99.90
57664;DHT22;43493;53.098;6.064;2023-02-15T03:00:31;2.00;99.90
57664;DHT22;43493;53.098;6.064;2023-02-15T03:03:39;2.10;99.90
57664;DHT22;43493;53.098;6.064;2023-02-15T03:06:00;2.10;99.90
57664;DHT22;43493;53.098;6.064;2023-02-15T03:08:32;2.10;99.90
57664;DHT22;43493;53.098;6.064;2023-02-15T03:11:00;2.00;99.90
57664;DHT22;43493;53.098;6.064;2023-02-15T03:13:27;2.00;99.90
57664;DHT22;43493;53.098;6.064;2023-02-15T03:15:54;2.00;99.90
57664;DHT22;43493;53.098;6.064;2023-02-15T03:18:43;2.00;99.90
57664;DHT22;43493;53.098;6.064;2023-02-15T03:21:11;2.10;99.90
57664;DHT22;43493;53.098;6.064;2023-02-15T03:23:51;2.00;99.90
57664;DHT22;43493;53.098;6.064;2023-02-15T03:26:18;2.10;99.90
57664;DHT22;43493;53.098;6.064;2023-02-15T03:28:46;2.00;99.90
57664;DHT22;43493;53.098;6.064;2023-02-15T03:31:14;1.90;99.90
57664;DHT22;43493;53.098;6.064;2023-02-15T03:33:52;2.00;99.90
57664;DHT22;43493;53.098;6.064;2023-02-15T03:41:45;2.00;99.90
57664;DHT22;43493;53.098;6.064;2023-02-15T03:44:26;2.00;99.90
57664;DHT22;43493;53.098;6.064;2023-02-15T03:47:01;1.90;99.90
57664;DHT22;43493;53.098;6.064;2023-02-15T03:49:42;1.90;99.90
57664;DHT22;43493;53.098;6.064;2023-02-15T03:52:11;1.90;99.90
57664;DHT22;43493;53.098;6.064;2023-02-15T03:54:39;1.80;99.90
57664;DHT22;43493;53.098;6.064;2023-02-15T03:57:23;1.90;99.90
57664;DHT22;43493;53.098;6.064;2023-02-15T04:05:32;1.90;99.90
57664;DHT22;43493;53.098;6.064;2023-02-15T04:07:57;1.80;99.90
57664;DHT22;43493;53.098;6.064;2023-02-15T04:10:23;1.90;99.90
57664;DHT22;43493;53.098;6.064;2023-02-15T04:13:07;1.80;99.90
57664;DHT22;43493;53.098;6.064;2023-02-15T04:15:33;1.90;99.90
57664;DHT22;43493;53.098;6.064;2023-02-15T04:18:17;1.90;99.90
57664;DHT22;43493;53.098;6.064;2023-02-15T04:20:44;1.80;99.90
57664;DHT22;43493;53.098;6.064;2023-02-15T04:23:29;1.80;99.90
57664;DHT22;43493;53.098;6.064;2023-02-15T04:26:13;1.70;99.90
57664;DHT22;43493;53.098;6.064;2023-02-15T04:28:39;1.70;99.90
57664;DHT22;43493;53.098;6.064;2023-02-15T04:31:04;1.80;99.90
57664;DHT22;43493;53.098;6.064;2023-02-15T04:33:30;1.70;99.90
57664;DHT22;43493;53.098;6.064;2023-02-15T04:35:56;1.80;99.90
57664;DHT22;43493;53.098;6.064;2023-02-15T04:38:22;1.80;99.90
57664;DHT22;43493;53.098;6.064;2023-02-15T04:40:52;1.80;99.90
57664;DHT22;43493;53.098;6.064;2023-02-15T04:43:19;1.70;99.90
57664;DHT22;43493;53.098;6.064;2023-02-15T04:45:51;1.70;99.90
57664;DHT22;43493;53.098;6.064;2023-02-15T04:48:17;1.80;99.90
57664;DHT22;43493;53.098;6.064;2023-02-15T04:50:44;1.80;99.90
57664;DHT22;43493;53.098;6.064;2023-02-15T04:53:10;1.80;99.90
57664;DHT22;43493;53.098;6.064;2023-02-15T04:55:36;1.80;99.90
57664;DHT22;43493;53.098;6.064;2023-02-15T04:58:02;1.80;99.90
57664;DHT22;43493;53.098;6.064;2023-02-15T05:00:28;1.70;99.90
57664;DHT22;43493;53.098;6.064;2023-02-15T05:02:54;1.70;99.90
57664;DHT22;43493;53.098;6.064;2023-02-15T05:05:19;1.80;99.90
57664;DHT22;43493;53.098;6.064;2023-02-15T05:07:45;1.80;99.90
57664;DHT22;43493;53.098;6.064;2023-02-15T05:10:11;1.70;99.90
57664;DHT22;43493;53.098;6.064;2023-02-15T05:12:36;1.70;99.90
57664;DHT22;43493;53.098;6.064;2023-02-15T05:15:02;1.70;99.90
57664;DHT22;43493;53.098;6.064;2023-02-15T05:17:28;1.60;99.90
57664;DHT22;43493;53.098;6.064;2023-02-15T05:19:54;1.70;99.90
57664;DHT22;43493;53.098;6.064;2023-02-15T05:22:19;1.60;99.90
57664;DHT22;43493;53.098;6.064;2023-02-15T05:24:45;1.70;99.90
57664;DHT22;43493;53.098;6.064;2023-02-15T05:27:29;1.70;99.90
57664;DHT22;43493;53.098;6.064;2023-02-15T05:30:13;1.70;99.90
57664;DHT22;43493;53.098;6.064;2023-02-15T05:32:39;1.70;99.90
57664;DHT22;43493;53.098;6.064;2023-02-15T05:35:06;1.70;99.90
57664;DHT22;43493;53.098;6.064;2023-02-15T05:37:33;1.60;99.90
57664;DHT22;43493;53.098;6.064;2023-02-15T05:39:58;1.60;99.90
57664;DHT22;43493;53.098;6.064;2023-02-15T05:42:24;1.70;99.90
57664;DHT22;43493;53.098;6.064;2023-02-15T05:44:50;1.60;99.90
57664;DHT22;43493;53.098;6.064;2023-02-15T05:47:15;1.60;99.90
57664;DHT22;43493;53.098;6.064;2023-02-15T05:49:41;1.60;99.90
57664;DHT22;43493;53.098;6.064;2023-02-15T05:52:07;1.60;99.90
57664;DHT22;43493;53.098;6.064;2023-02-15T05:54:33;1.60;99.90
57664;DHT22;43493;53.098;6.064;2023-02-15T05:56:59;1.60;99.90
57664;DHT22;43493;53.098;6.064;2023-02-15T05:59:24;1.60;99.90
57664;DHT22;43493;53.098;6.064;2023-02-15T06:01:50;1.60;99.90
57664;DHT22;43493;53.098;6.064;2023-02-15T06:04:16;1.60;99.90
57664;DHT22;43493;53.098;6.064;2023-02-15T06:06:42;1.60;99.90
57664;DHT22;43493;53.098;6.064;2023-02-15T06:09:07;1.70;99.90
57664;DHT22;43493;53.098;6.064;2023-02-15T06:11:33;1.60;99.90
57664;DHT22;43493;53.098;6.064;2023-02-15T06:13:59;1.60;99.90
57664;DHT22;43493;53.098;6.064;2023-02-15T06:16:24;1.60;99.90
57664;DHT22;43493;53.098;6.064;2023-02-15T06:18:50;1.60;99.90
57664;DHT22;43493;53.098;6.064;2023-02-15T06:21:16;1.50;99.90
57664;DHT22;43493;53.098;6.064;2023-02-15T06:23:41;1.60;99.90
57664;DHT22;43493;53.098;6.064;2023-02-15T06:26:08;1.60;99.90
57664;DHT22;43493;53.098;6.064;2023-02-15T06:28:34;1.70;99.90
57664;DHT22;43493;53.098;6.064;2023-02-15T06:30:59;1.70;99.90
57664;DHT22;43493;53.098;6.064;2023-02-15T06:33:25;1.70;99.90
57664;DHT22;43493;53.098;6.064;2023-02-15T06:35:51;1.70;99.90
57664;DHT22;43493;53.098;6.064;2023-02-15T06:38:17;1.70;99.90
57664;DHT22;43493;53.098;6.064;2023-02-15T06:40:43;1.80;99.90
57664;DHT22;43493;53.098;6.064;2023-02-15T06:43:08;1.80;99.90
57664;DHT22;43493;53.098;6.064;2023-02-15T06:45:34;1.80;99.90
57664;DHT22;43493;53.098;6.064;2023-02-15T06:48:00;1.90;99.90
57664;DHT22;43493;53.098;6.064;2023-02-15T06:50:25;1.80;99.90
57664;DHT22;43493;53.098;6.064;2023-02-15T06:52:58;1.80;99.90
57664;DHT22;43493;53.098;6.064;2023-02-15T06:55:25;1.80;99.90
57664;DHT22;43493;53.098;6.064;2023-02-15T06:57:50;1.80;99.90
57664;DHT22;43493;53.098;6.064;2023-02-15T07:00:16;1.80;99.90
57664;DHT22;43493;53.098;6.064;2023-02-15T07:02:43;1.90;99.90
57664;DHT22;43493;53.098;6.064;2023-02-15T07:05:09;2.00;99.90
57664;DHT22;43493;53.098;6.064;2023-02-15T07:07:35;1.90;99.90
57664;DHT22;43493;53.098;6.064;2023-02-15T07:10:01;1.90;99.90
57664;DHT22;43493;53.098;6.064;2023-02-15T07:12:26;1.90;99.90
57664;DHT22;43493;53.098;6.064;2023-02-15T07:15:12;2.10;99.90
57664;DHT22;43493;53.098;6.064;2023-02-15T07:17:39;2.00;99.90
57664;DHT22;43493;53.098;6.064;2023-02-15T07:20:11;2.00;99.90
57664;DHT22;43493;53.098;6.064;2023-02-15T07:22:37;2.00;99.90
57664;DHT22;43493;53.098;6.064;2023-02-15T07:25:05;2.00;99.90
57664;DHT22;43493;53.098;6.064;2023-02-15T07:27:31;2.00;99.90
57664;DHT22;43493;53.098;6.064;2023-02-15T07:29:57;2.10;99.90
57664;DHT22;43493;53.098;6.064;2023-02-15T07:32:23;2.10;99.90
57664;DHT22;43493;53.098;6.064;2023-02-15T07:34:49;2.20;99.90
57664;DHT22;43493;53.098;6.064;2023-02-15T07:37:14;2.20;99.90
57664;DHT22;43493;53.098;6.064;2023-02-15T07:39:40;2.10;99.90
57664;DHT22;43493;53.098;6.064;2023-02-15T07:42:06;2.20;99.90
57664;DHT22;43493;53.098;6.064;2023-02-15T07:44:31;2.20;99.90
57664;DHT22;43493;53.098;6.064;2023-02-15T07:46:57;2.30;99.90
57664;DHT22;43493;53.098;6.064;2023-02-15T07:49:23;2.30;99.90
57664;DHT22;43493;53.098;6.064;2023-02-15T07:51:48;2.40;99.90
57664;DHT22;43493;53.098;6.064;2023-02-15T07:54:14;2.40;99.90
57664;DHT22;43493;53.098;6.064;2023-02-15T07:56:40;2.50;99.90
57664;DHT22;43493;53.098;6.064;2023-02-15T07:59:06;2.50;99.90
57664;DHT22;43493;53.098;6.064;2023-02-15T08:01:37;2.60;99.90
57664;DHT22;43493;53.098;6.064;2023-02-15T08:04:04;2.60;99.90
57664;DHT22;43493;53.098;6.064;2023-02-15T08:06:33;2.60;99.90
57664;DHT22;43493;53.098;6.064;2023-02-15T08:08:59;2.70;99.90
57664;DHT22;43493;53.098;6.064;2023-02-15T08:11:31;2.70;99.90
57664;DHT22;43493;53.098;6.064;2023-02-15T08:19:05;2.90;99.90
57664;DHT22;43493;53.098;6.064;2023-02-15T08:21:32;2.90;99.90
57664;DHT22;43493;53.098;6.064;2023-02-15T08:23:59;3.00;99.90
57664;DHT22;43493;53.098;6.064;2023-02-15T08:26:26;3.00;99.90
57664;DHT22;43493;53.098;6.064;2023-02-15T08:28:53;3.00;99.90
57664;DHT22;43493;53.098;6.064;2023-02-15T08:31:19;3.10;99.90
57664;DHT22;43493;53.098;6.064;2023-02-15T08:33:47;3.20;99.90
57664;DHT22;43493;53.098;6.064;2023-02-15T08:36:15;3.30;99.90
57664;DHT22;43493;53.098;6.064;2023-02-15T08:38:42;3.30;99.90
57664;DHT22;43493;53.098;6.064;2023-02-15T08:41:19;3.40;99.90
57664;DHT22;43493;53.098;6.064;2023-02-15T08:43:51;3.50;99.90
57664;DHT22;43493;53.098;6.064;2023-02-15T08:46:18;3.60;99.90
57664;DHT22;43493;53.098;6.064;2023-02-15T08:48:44;3.60;99.90
57664;DHT22;43493;53.098;6.064;2023-02-15T08:51:15;3.70;99.90
57664;DHT22;43493;53.098;6.064;2023-02-15T08:53:46;3.80;99.90
57664;DHT22;43493;53.098;6.064;2023-02-15T08:56:14;3.80;99.90
57664;DHT22;43493;53.098;6.064;2023-02-15T08:58:40;3.90;99.90
57664;DHT22;43493;53.098;6.064;2023-02-15T09:01:15;3.90;99.90
57664;DHT22;43493;53.098;6.064;2023-02-15T09:03:47;4.10;99.90
57664;DHT22;43493;53.098;6.064;2023-02-15T09:06:14;4.00;99.90
57664;DHT22;43493;53.098;6.064;2023-02-15T09:08:40;4.10;99.90
57664;DHT22;43493;53.098;6.064;2023-02-15T09:11:12;4.20;99.90
57664;DHT22;43493;53.098;6.064;2023-02-15T09:13:39;4.30;99.90
57664;DHT22;43493;53.098;6.064;2023-02-15T09:16:08;4.30;99.90
57664;DHT22;43493;53.098;6.064;2023-02-15T09:18:36;4.40;99.90
57664;DHT22;43493;53.098;6.064;2023-02-15T09:21:12;4.40;99.90
57664;DHT22;43493;53.098;6.064;2023-02-15T09:23:42;4.60;99.90
57664;DHT22;43493;53.098;6.064;2023-02-15T09:26:11;4.60;99.90
57664;DHT22;43493;53.098;6.064;2023-02-15T09:28:37;4.70;99.90
57664;DHT22;43493;53.098;6.064;2023-02-15T09:31:18;4.80;99.90
57664;DHT22;43493;53.098;6.064;2023-02-15T09:33:45;4.90;99.90
57664;DHT22;43493;53.098;6.064;2023-02-15T09:36:20;4.90;99.90
57664;DHT22;43493;53.098;6.064;2023-02-15T09:38:48;5.00;99.90
57664;DHT22;43493;53.098;6.064;2023-02-15T09:50:06;5.20;99.90
57664;DHT22;43493;53.098;6.064;2023-02-15T10:20:40;5.70;99.90
57664;DHT22;43493;53.098;6.064;2023-02-15T10:23:26;5.70;99.90
57664;DHT22;43493;53.098;6.064;2023-02-15T10:28:59;5.80;99.90
57664;DHT22;43493;53.098;6.064;2023-02-15T10:31:39;5.80;99.90
57664;DHT22;43493;53.098;6.064;2023-02-15T10:34:16;5.90;99.90
57664;DHT22;43493;53.098;6.064;2023-02-15T10:53:21;6.20;99.90
57664;DHT22;43493;53.098;6.064;2023-02-15T11:02:08;6.50;99.90
57664;DHT22;43493;53.098;6.064;2023-02-15T11:06:58;6.70;99.90
57664;DHT22;43493;53.098;6.064;2023-02-15T11:09:33;6.70;99.90
57664;DHT22;43493;53.098;6.064;2023-02-15T11:12:06;6.80;99.90
57664;DHT22;43493;53.098;6.064;2023-02-15T11:17:16;7.00;99.90
57664;DHT22;43493;53.098;6.064;2023-02-15T11:19:53;7.10;99.90
57664;DHT22;43493;53.098;6.064;2023-02-15T11:22:21;7.10;99.90
57664;DHT22;43493;53.098;6.064;2023-02-15T11:24:47;7.20;99.90
57664;DHT22;43493;53.098;6.064;2023-02-15T11:27:20;7.30;99.90
57664;DHT22;43493;53.098;6.064;2023-02-15T11:30:05;7.40;99.90
57664;DHT22;43493;53.098;6.064;2023-02-15T11:32:40;7.40;99.90
57664;DHT22;43493;53.098;6.064;2023-02-15T11:35:18;7.50;99.90
57664;DHT22;43493;53.098;6.064;2023-02-15T11:41:11;7.60;99.90
57664;DHT22;43493;53.098;6.064;2023-02-15T11:43:49;7.70;99.90
57664;DHT22;43493;53.098;6.064;2023-02-15T11:46:15;7.80;99.90
57664;DHT22;43493;53.098;6.064;2023-02-15T11:48:42;7.90;99.90
57664;DHT22;43493;53.098;6.064;2023-02-15T11:51:17;7.90;99.90
57664;DHT22;43493;53.098;6.064;2023-02-15T11:53:45;7.90;99.90
57664;DHT22;43493;53.098;6.064;2023-02-15T11:56:16;8.00;99.90
57664;DHT22;43493;53.098;6.064;2023-02-15T11:58:58;8.00;99.90
57664;DHT22;43493;53.098;6.064;2023-02-15T12:01:31;8.00;99.90
57664;DHT22;43493;53.098;6.064;2023-02-15T12:04:06;8.10;99.90
57664;DHT22;43493;53.098;6.064;2023-02-15T12:06:37;8.10;99.90
57664;DHT22;43493;53.098;6.064;2023-02-15T12:09:34;8.10;99.90
57664;DHT22;43493;53.098;6.064;2023-02-15T12:14:53;8.20;99.90
57664;DHT22;43493;53.098;6.064;2023-02-15T12:17:25;8.20;99.90
57664;DHT22;43493;53.098;6.064;2023-02-15T12:19:55;8.30;99.90
57664;DHT22;43493;53.098;6.064;2023-02-15T12:22:25;8.40;99.90
57664;DHT22;43493;53.098;6.064;2023-02-15T12:24:55;8.40;99.90
57664;DHT22;43493;53.098;6.064;2023-02-15T12:27:21;8.50;99.90
57664;DHT22;43493;53.098;6.064;2023-02-15T12:29:52;8.50;99.90
57664;DHT22;43493;53.098;6.064;2023-02-15T12:32:24;8.50;99.90
57664;DHT22;43493;53.098;6.064;2023-02-15T12:34:52;8.60;99.90
57664;DHT22;43493;53.098;6.064;2023-02-15T12:37:26;8.60;99.90
57664;DHT22;43493;53.098;6.064;2023-02-15T12:40:01;8.60;99.90
57664;DHT22;43493;53.098;6.064;2023-02-15T12:42:43;8.50;99.90
57664;DHT22;43493;53.098;6.064;2023-02-15T12:45:34;8.60;99.90
57664;DHT22;43493;53.098;6.064;2023-02-15T12:50:41;8.70;99.90
57664;DHT22;43493;53.098;6.064;2023-02-15T12:55:55;8.70;99.90
57664;DHT22;43493;53.098;6.064;2023-02-15T12:58:24;8.80;99.90
57664;DHT22;43493;53.098;6.064;2023-02-15T13:03:35;8.80;99.90
57664;DHT22;43493;53.098;6.064;2023-02-15T13:06:03;8.90;99.90
57664;DHT22;43493;53.098;6.064;2023-02-15T13:09:15;8.90;99.90
57664;DHT22;43493;53.098;6.064;2023-02-15T13:11:42;8.90;99.90
57664;DHT22;43493;53.098;6.064;2023-02-15T13:14:22;9.00;99.90
57664;DHT22;43493;53.098;6.064;2023-02-15T13:16:52;9.00;99.90
57664;DHT22;43493;53.098;6.064;2023-02-15T13:22:05;9.10;99.90
57664;DHT22;43493;53.098;6.064;2023-02-15T13:24:47;9.00;99.90
57664;DHT22;43493;53.098;6.064;2023-02-15T13:27:20;9.10;99.90
57664;DHT22;43493;53.098;6.064;2023-02-15T13:29:59;9.20;99.90
57664;DHT22;43493;53.098;6.064;2023-02-15T13:32:35;9.10;99.90
57664;DHT22;43493;53.098;6.064;2023-02-15T13:35:03;9.20;99.90
57664;DHT22;43493;53.098;6.064;2023-02-15T13:46:16;9.20;99.90
57664;DHT22;43493;53.098;6.064;2023-02-15T13:49:07;9.20;99.90
57664;DHT22;43493;53.098;6.064;2023-02-15T13:54:57;9.20;99.90
57664;DHT22;43493;53.098;6.064;2023-02-15T14:08:17;9.20;99.90
57664;DHT22;43493;53.098;6.064;2023-02-15T14:11:06;9.20;99.90
57664;DHT22;43493;53.098;6.064;2023-02-15T14:21:32;9.30;99.90
57664;DHT22;43493;53.098;6.064;2023-02-15T14:27:32;9.30;99.90
57664;DHT22;43493;53.098;6.064;2023-02-15T14:30:20;9.30;99.90
57664;DHT22;43493;53.098;6.064;2023-02-15T14:32:51;9.30;99.90
57664;DHT22;43493;53.098;6.064;2023-02-15T14:35:28;9.30;99.90
57664;DHT22;43493;53.098;6.064;2023-02-15T14:40:54;9.30;99.90
57664;DHT22;43493;53.098;6.064;2023-02-15T14:49:32;9.30;99.90
57664;DHT22;43493;53.098;6.064;2023-02-15T14:52:16;9.30;99.90
57664;DHT22;43493;53.098;6.064;2023-02-15T15:02:44;9.40;99.90
57664;DHT22;43493;53.098;6.064;2023-02-15T15:05:20;9.40;99.90
57664;DHT22;43493;53.098;6.064;2023-02-15T15:07:57;9.40;99.90
57664;DHT22;43493;53.098;6.064;2023-02-15T15:10:42;9.40;99.90
57664;DHT22;43493;53.098;6.064;2023-02-15T15:15:56;9.30;99.90
57664;DHT22;43493;53.098;6.064;2023-02-15T15:18:47;9.30;99.90
57664;DHT22;43493;53.098;6.064;2023-02-15T15:49:10;9.10;99.90
57664;DHT22;43493;53.098;6.064;2023-02-15T15:51:42;9.00;99.90
57664;DHT22;43493;53.098;6.064;2023-02-15T15:54:19;9.00;99.90
57664;DHT22;43493;53.098;6.064;2023-02-15T15:57:05;9.00;99.90
57664;DHT22;43493;53.098;6.064;2023-02-15T15:59:44;8.90;99.90
57664;DHT22;43493;53.098;6.064;2023-02-15T16:02:15;8.90;99.90
57664;DHT22;43493;53.098;6.064;2023-02-15T16:04:44;8.90;99.90
57664;DHT22;43493;53.098;6.064;2023-02-15T16:09:57;8.80;99.90
57664;DHT22;43493;53.098;6.064;2023-02-15T16:12:28;8.80;99.90
57664;DHT22;43493;53.098;6.064;2023-02-15T16:14:55;8.70;99.90
57664;DHT22;43493;53.098;6.064;2023-02-15T16:17:28;8.70;99.90
57664;DHT22;43493;53.098;6.064;2023-02-15T16:20:33;8.60;99.90
57664;DHT22;43493;53.098;6.064;2023-02-15T16:28:52;8.40;99.90
57664;DHT22;43493;53.098;6.064;2023-02-15T16:31:19;8.40;99.90
57664;DHT22;43493;53.098;6.064;2023-02-15T16:33:46;8.40;99.90
57664;DHT22;43493;53.098;6.064;2023-02-15T16:36:26;8.30;99.90
57664;DHT22;43493;53.098;6.064;2023-02-15T16:41:23;8.20;99.90
57664;DHT22;43493;53.098;6.064;2023-02-15T16:43:50;8.20;99.90
57664;DHT22;43493;53.098;6.064;2023-02-15T16:46:28;8.10;99.90
57664;DHT22;43493;53.098;6.064;2023-02-15T16:48:58;8.10;99.90
57664;DHT22;43493;53.098;6.064;2023-02-15T16:51:29;8.10;99.90
57664;DHT22;43493;53.098;6.064;2023-02-15T16:53:57;8.00;99.90
57664;DHT22;43493;53.098;6.064;2023-02-15T16:56:27;7.90;99.90
57664;DHT22;43493;53.098;6.064;2023-02-15T16:58:54;7.90;99.90
57664;DHT22;43493;53.098;6.064;2023-02-15T17:01:22;7.90;99.90
57664;DHT22;43493;53.098;6.064;2023-02-15T17:03:51;7.90;99.90
57664;DHT22;43493;53.098;6.064;2023-02-15T17:06:25;7.80;99.90
57664;DHT22;43493;53.098;6.064;2023-02-15T17:08:51;7.80;99.90
57664;DHT22;43493;53.098;6.064;2023-02-15T17:11:19;7.80;99.90
57664;DHT22;43493;53.098;6.064;2023-02-15T17:16:50;7.70;99.90
57664;DHT22;43493;53.098;6.064;2023-02-15T17:19:27;7.70;99.90
57664;DHT22;43493;53.098;6.064;2023-02-15T17:22:02;7.60;99.90
57664;DHT22;43493;53.098;6.064;2023-02-15T17:24:38;7.60;99.90
57664;DHT22;43493;53.098;6.064;2023-02-15T17:27:24;7.60;99.90
57664;DHT22;43493;53.098;6.064;2023-02-15T17:29:55;7.50;99.90
57664;DHT22;43493;53.098;6.064;2023-02-15T17:32:24;7.50;99.90
57664;DHT22;43493;53.098;6.064;2023-02-15T17:37:46;7.50;99.90
57664;DHT22;43493;53.098;6.064;2023-02-15T17:40:23;7.40;99.90
57664;DHT22;43493;53.098;6.064;2023-02-15T17:42:49;7.40;99.90
57664;DHT22;43493;53.098;6.064;2023-02-15T17:45:15;7.40;99.90
57664;DHT22;43493;53.098;6.064;2023-02-15T17:47:42;7.30;99.90
57664;DHT22;43493;53.098;6.064;2023-02-15T17:50:19;7.30;99.90
57664;DHT22;43493;53.098;6.064;2023-02-15T17:52:45;7.30;99.90
57664;DHT22;43493;53.098;6.064;2023-02-15T17:55:16;7.20;99.90
57664;DHT22;43493;53.098;6.064;2023-02-15T17:58:03;7.20;99.90
57664;DHT22;43493;53.098;6.064;2023-02-15T18:00:35;7.20;99.90
57664;DHT22;43493;53.098;6.064;2023-02-15T18:03:20;7.20;99.90
57664;DHT22;43493;53.098;6.064;2023-02-15T18:06:05;7.10;99.90
57664;DHT22;43493;53.098;6.064;2023-02-15T18:08:49;7.10;99.90
57664;DHT22;43493;53.098;6.064;2023-02-15T18:11:33;7.00;99.90
57664;DHT22;43493;53.098;6.064;2023-02-15T18:14:07;7.00;99.90
57664;DHT22;43493;53.098;6.064;2023-02-15T18:16:38;7.00;99.90
57664;DHT22;43493;53.098;6.064;2023-02-15T18:19:34;7.00;99.90
57664;DHT22;43493;53.098;6.064;2023-02-15T18:22:01;6.90;99.90
57664;DHT22;43493;53.098;6.064;2023-02-15T18:24:26;6.90;99.90
57664;DHT22;43493;53.098;6.064;2023-02-15T18:26:53;6.90;99.90
57664;DHT22;43493;53.098;6.064;2023-02-15T18:29:19;6.90;99.90
57664;DHT22;43493;53.098;6.064;2023-02-15T18:31:48;6.80;99.90
57664;DHT22;43493;53.098;6.064;2023-02-15T18:34:32;6.80;99.90
57664;DHT22;43493;53.098;6.064;2023-02-15T18:37:00;6.80;99.90
57664;DHT22;43493;53.098;6.064;2023-02-15T18:41:59;6.80;99.90
57664;DHT22;43493;53.098;6.064;2023-02-15T18:44:25;6.70;99.90
57664;DHT22;43493;53.098;6.064;2023-02-15T18:46:51;6.70;99.90
57664;DHT22;43493;53.098;6.064;2023-02-15T18:49:17;6.70;99.90
57664;DHT22;43493;53.098;6.064;2023-02-15T18:51:46;6.70;99.90
57664;DHT22;43493;53.098;6.064;2023-02-15T18:54:19;6.70;99.90
57664;DHT22;43493;53.098;6.064;2023-02-15T18:56:57;6.70;99.90
57664;DHT22;43493;53.098;6.064;2023-02-15T18:59:25;6.60;99.90
57664;DHT22;43493;53.098;6.064;2023-02-15T19:01:51;6.60;99.90
57664;DHT22;43493;53.098;6.064;2023-02-15T19:04:17;6.60;99.90
57664;DHT22;43493;53.098;6.064;2023-02-15T19:06:47;6.60;99.90
57664;DHT22;43493;53.098;6.064;2023-02-15T19:09:16;6.60;99.90
57664;DHT22;43493;53.098;6.064;2023-02-15T19:11:49;6.60;99.90
57664;DHT22;43493;53.098;6.064;2023-02-15T19:14:33;6.60;99.90
57664;DHT22;43493;53.098;6.064;2023-02-15T19:16:59;6.70;99.90
57664;DHT22;43493;53.098;6.064;2023-02-15T19:19:25;6.60;99.90
57664;DHT22;43493;53.098;6.064;2023-02-15T19:21:52;6.70;99.90
57664;DHT22;43493;53.098;6.064;2023-02-15T19:24:21;6.70;99.90
57664;DHT22;43493;53.098;6.064;2023-02-15T19:26:48;6.70;99.90
57664;DHT22;43493;53.098;6.064;2023-02-15T19:29:20;6.70;99.90
57664;DHT22;43493;53.098;6.064;2023-02-15T19:31:46;6.70;99.90
57664;DHT22;43493;53.098;6.064;2023-02-15T19:34:17;6.70;99.90
57664;DHT22;43493;53.098;6.064;2023-02-15T19:36:45;6.70;99.90
57664;DHT22;43493;53.098;6.064;2023-02-15T19:39:27;6.70;99.90
57664;DHT22;43493;53.098;6.064;2023-02-15T19:41:53;6.70;99.90
57664;DHT22;43493;53.098;6.064;2023-02-15T19:44:19;6.70;99.90
57664;DHT22;43493;53.098;6.064;2023-02-15T19:46:45;6.70;99.90